createdAt,value
2023-04-22T00:00:00.430Z,11.52
2023-04-22T00:01:00.333Z,11.51
2023-04-22T00:02:00.318Z,11.52
2023-04-22T00:03:00.540Z,11.54
2023-04-22T00:04:00.546Z,11.55
2023-04-22T00:05:00.543Z,11.55
2023-04-22T00:06:00.538Z,11.55
2023-04-22T00:07:00.270Z,11.57
2023-04-22T00:08:00.263Z,11.57
2023-04-22T00:09:00.310Z,11.57
2023-04-22T00:10:00.225Z,11.57
2023-04-22T00:11:00.510Z,11.59
2023-04-22T00:12:00.219Z,11.60
2023-04-22T00:13:00.197Z,11.60
2023-04-22T00:14:00.246Z,11.62
2023-04-22T00:15:00.198Z,11.60
2023-04-22T00:16:00.319Z,11.62
2023-04-22T00:17:00.184Z,11.62
2023-04-22T00:18:00.253Z,11.60
2023-04-22T00:19:00.188Z,11.62
2023-04-22T00:20:00.177Z,11.60
2023-04-22T00:21:00.112Z,11.59
2023-04-22T00:22:00.104Z,11.57
2023-04-22T00:23:00.110Z,11.55
2023-04-22T00:24:00.155Z,11.54
2023-04-22T00:25:00.067Z,11.50
2023-04-22T00:26:00.049Z,11.52
2023-04-22T00:27:00.036Z,11.50
2023-04-22T00:28:00.024Z,11.50
2023-04-22T00:29:00.038Z,11.47
2023-04-22T00:30:00.004Z,11.45
2023-04-22T00:31:00.409Z,11.44
2023-04-22T00:31:59.970Z,11.43
2023-04-22T00:33:00.039Z,11.40
2023-04-22T00:34:00.065Z,11.36
2023-04-22T00:34:59.966Z,11.35
2023-04-22T00:35:59.931Z,11.32
2023-04-22T00:36:59.938Z,11.30
2023-04-22T00:37:59.903Z,11.29
2023-04-22T00:38:59.921Z,11.25
2023-04-22T00:39:59.897Z,11.23
2023-04-22T00:40:59.859Z,11.19
2023-04-22T00:41:59.901Z,11.17
2023-04-22T00:42:59.903Z,11.14
2023-04-22T00:43:59.825Z,11.12
2023-04-22T00:44:59.868Z,11.10
2023-04-22T00:45:59.809Z,11.07
2023-04-22T00:46:59.924Z,11.05
2023-04-22T00:47:59.806Z,10.99
2023-04-22T00:48:59.789Z,10.97
2023-04-22T00:49:59.840Z,10.96
2023-04-22T00:50:59.786Z,10.92
2023-04-22T00:51:59.748Z,10.90
2023-04-22T00:52:59.779Z,10.89
2023-04-22T00:53:59.724Z,10.87
2023-04-22T00:54:59.794Z,10.86
2023-04-22T00:55:59.697Z,10.82
2023-04-22T00:56:59.727Z,10.82
2023-04-22T00:57:59.682Z,10.79
2023-04-22T00:58:59.756Z,10.78
2023-04-22T00:59:59.657Z,10.75
2023-04-22T01:00:59.771Z,10.75
2023-04-22T01:01:59.651Z,10.74
2023-04-22T01:02:59.812Z,10.72
2023-04-22T01:03:59.994Z,10.74
2023-04-22T01:04:59.717Z,10.72
2023-04-22T01:05:59.621Z,10.71
2023-04-22T01:06:59.678Z,10.71
2023-04-22T01:07:59.558Z,10.68
2023-04-22T01:08:59.571Z,10.68
2023-04-22T01:09:59.573Z,10.67
2023-04-22T01:10:59.577Z,10.64
2023-04-22T01:11:59.536Z,10.64
2023-04-22T01:12:59.555Z,10.61
2023-04-22T01:13:59.501Z,10.60
2023-04-22T01:15:00.654Z,10.60
2023-04-22T01:15:59.606Z,10.60
2023-04-22T01:16:59.626Z,10.57
2023-04-22T01:17:59.524Z,10.57
2023-04-22T01:18:59.536Z,10.56
2023-04-22T01:19:59.444Z,10.54
2023-04-22T01:20:59.434Z,10.54
2023-04-22T01:21:59.469Z,10.53
2023-04-22T01:22:59.406Z,10.51
2023-04-22T01:23:59.390Z,10.51
2023-04-22T01:24:59.394Z,10.49
2023-04-22T01:25:59.380Z,10.48
2023-04-22T01:26:59.354Z,10.49
2023-04-22T01:27:59.381Z,10.46
2023-04-22T01:28:59.355Z,10.46
2023-04-22T01:29:59.333Z,10.46
2023-04-22T01:30:59.317Z,10.42
2023-04-22T01:31:59.316Z,10.42
2023-04-22T01:32:59.365Z,10.38
2023-04-22T01:33:59.310Z,10.37
2023-04-22T01:34:59.288Z,10.38
2023-04-22T01:35:59.285Z,10.37
2023-04-22T01:36:59.263Z,10.37
2023-04-22T01:37:59.238Z,10.35
2023-04-22T01:38:59.225Z,10.34
2023-04-22T01:39:59.278Z,10.34
2023-04-22T01:40:59.216Z,10.31
2023-04-22T01:41:59.202Z,10.34
2023-04-22T01:42:59.214Z,10.31
2023-04-22T01:43:59.174Z,10.30
2023-04-22T01:44:59.167Z,10.28
2023-04-22T01:45:59.282Z,10.26
2023-04-22T01:46:59.141Z,10.26
2023-04-22T01:47:59.162Z,10.25
2023-04-22T01:48:59.108Z,10.25
2023-04-22T01:49:59.136Z,10.25
2023-04-22T01:50:59.102Z,10.23
2023-04-22T01:51:59.068Z,10.23
2023-04-22T01:52:59.075Z,10.22
2023-04-22T01:53:59.044Z,10.23
2023-04-22T01:54:59.134Z,10.20
2023-04-22T01:55:59.018Z,10.20
2023-04-22T01:56:59.043Z,10.22
2023-04-22T01:57:58.998Z,10.22
2023-04-22T01:58:58.995Z,10.19
2023-04-22T01:59:59.051Z,10.20
2023-04-22T02:00:59.006Z,10.20
2023-04-22T02:01:59.016Z,10.19
2023-04-22T02:02:59.090Z,10.19
2023-04-22T02:03:58.938Z,10.17
2023-04-22T02:04:58.974Z,10.17
2023-04-22T02:05:58.920Z,10.17
2023-04-22T02:06:58.923Z,10.19
2023-04-22T02:07:58.916Z,10.17
2023-04-22T02:08:58.927Z,10.19
2023-04-22T02:09:58.875Z,10.20
2023-04-22T02:10:58.878Z,10.19
2023-04-22T02:11:58.848Z,10.19
2023-04-22T02:12:58.915Z,10.17
2023-04-22T02:13:58.843Z,10.19
2023-04-22T02:14:58.870Z,10.17
2023-04-22T02:15:58.846Z,10.17
2023-04-22T02:16:58.834Z,10.19
2023-04-22T02:17:58.780Z,10.17
2023-04-22T02:18:58.786Z,10.17
2023-04-22T02:19:59.085Z,10.17
2023-04-22T02:20:58.751Z,10.19
2023-04-22T02:21:58.808Z,10.17
2023-04-22T02:22:58.732Z,10.16
2023-04-22T02:23:58.729Z,10.17
2023-04-22T02:24:58.713Z,10.17
2023-04-22T02:25:58.712Z,10.16
2023-04-22T02:26:58.743Z,10.15
2023-04-22T02:27:58.665Z,10.15
2023-04-22T02:28:58.659Z,10.16
2023-04-22T02:29:58.663Z,10.15
2023-04-22T02:30:58.670Z,10.15
2023-04-22T02:31:58.725Z,10.15
2023-04-22T02:32:58.627Z,10.15
2023-04-22T02:33:58.603Z,10.16
2023-04-22T02:34:58.604Z,10.16
2023-04-22T02:35:58.588Z,10.15
2023-04-22T02:36:58.578Z,10.16
2023-04-22T02:37:58.561Z,10.15
2023-04-22T02:38:58.526Z,10.15
2023-04-22T02:39:58.612Z,10.15
2023-04-22T02:40:58.552Z,10.16
2023-04-22T02:41:58.526Z,10.16
2023-04-22T02:42:58.592Z,10.16
2023-04-22T02:43:58.501Z,10.15
2023-04-22T02:44:58.581Z,10.16
2023-04-22T02:45:58.504Z,10.15
2023-04-22T02:46:58.596Z,10.17
2023-04-22T02:47:58.493Z,10.16
2023-04-22T02:48:58.420Z,10.15
2023-04-22T02:49:58.454Z,10.15
2023-04-22T02:50:58.443Z,10.15
2023-04-22T02:51:58.438Z,10.15
2023-04-22T02:52:58.389Z,10.16
2023-04-22T02:53:58.389Z,10.17
2023-04-22T02:54:58.357Z,10.16
2023-04-22T02:55:58.373Z,10.17
2023-04-22T02:56:58.438Z,10.17
2023-04-22T02:57:58.332Z,10.16
2023-04-22T02:58:58.366Z,10.19
2023-04-22T02:59:58.581Z,10.17
2023-04-22T03:00:58.378Z,10.17
2023-04-22T03:01:58.480Z,10.19
2023-04-22T03:02:58.400Z,10.17
2023-04-22T03:03:58.487Z,10.16
2023-04-22T03:04:58.255Z,10.17
2023-04-22T03:05:58.270Z,10.16
2023-04-22T03:06:58.258Z,10.16
2023-04-22T03:07:58.231Z,10.16
2023-04-22T03:08:58.209Z,10.15
2023-04-22T03:09:58.191Z,10.12
2023-04-22T03:10:58.234Z,10.13
2023-04-22T03:11:58.185Z,10.12
2023-04-22T03:12:58.174Z,10.12
2023-04-22T03:13:58.153Z,10.13
2023-04-22T03:14:58.151Z,10.12
2023-04-22T03:15:58.137Z,10.13
2023-04-22T03:16:58.259Z,10.13
2023-04-22T03:17:58.180Z,10.12
2023-04-22T03:18:58.123Z,10.10
2023-04-22T03:19:58.308Z,10.10
2023-04-22T03:20:58.058Z,10.12
2023-04-22T03:21:58.076Z,10.12
2023-04-22T03:22:58.070Z,10.15
2023-04-22T03:23:58.043Z,10.17
2023-04-22T03:24:58.021Z,10.19
2023-04-22T03:25:58.047Z,10.20
2023-04-22T03:26:58.000Z,10.20
2023-04-22T03:27:58.006Z,10.22
2023-04-22T03:28:57.992Z,10.23
2023-04-22T03:29:58.006Z,10.23
2023-04-22T03:30:57.941Z,10.25
2023-04-22T03:31:57.984Z,10.28
2023-04-22T03:32:58.052Z,10.30
2023-04-22T03:33:57.944Z,10.33
2023-04-22T03:34:57.977Z,10.33
2023-04-22T03:35:57.897Z,10.35
2023-04-22T03:36:57.881Z,10.37
2023-04-22T03:37:57.884Z,10.38
2023-04-22T03:38:57.870Z,10.40
2023-04-22T03:39:57.891Z,10.41
2023-04-22T03:40:57.908Z,10.40
2023-04-22T03:41:57.859Z,10.41
2023-04-22T03:42:57.873Z,10.40
2023-04-22T03:44:00.264Z,10.38
2023-04-22T03:44:57.788Z,10.38
2023-04-22T03:45:57.882Z,10.38
2023-04-22T03:46:57.786Z,10.37
2023-04-22T03:47:57.810Z,10.37
2023-04-22T03:48:57.748Z,10.34
2023-04-22T03:49:57.781Z,10.34
2023-04-22T03:50:57.751Z,10.34
2023-04-22T03:51:57.730Z,10.33
2023-04-22T03:52:57.744Z,10.31
2023-04-22T03:53:57.713Z,10.28
2023-04-22T03:54:57.713Z,10.28
2023-04-22T03:55:57.685Z,10.28
2023-04-22T03:56:57.799Z,10.28
2023-04-22T03:57:57.689Z,10.28
2023-04-22T03:58:57.631Z,10.26
2023-04-22T03:59:57.656Z,10.25
2023-04-22T04:00:57.732Z,10.25
2023-04-22T04:01:57.710Z,10.26
2023-04-22T04:02:57.775Z,10.23
2023-04-22T04:03:57.852Z,10.25
2023-04-22T04:04:57.969Z,10.22
2023-04-22T04:05:57.664Z,10.23
2023-04-22T04:06:57.558Z,10.23
2023-04-22T04:07:57.536Z,10.20
2023-04-22T04:08:57.523Z,10.20
2023-04-22T04:09:57.591Z,10.19
2023-04-22T04:10:57.496Z,10.19
2023-04-22T04:11:57.529Z,10.19
2023-04-22T04:12:57.468Z,10.19
2023-04-22T04:13:57.468Z,10.17
2023-04-22T04:14:57.455Z,10.17
2023-04-22T04:15:57.571Z,10.17
2023-04-22T04:16:57.456Z,10.16
2023-04-22T04:17:57.483Z,10.17
2023-04-22T04:18:57.418Z,10.17
2023-04-22T04:19:57.405Z,10.19
2023-04-22T04:20:57.382Z,10.20
2023-04-22T04:21:57.376Z,10.22
2023-04-22T04:22:57.399Z,10.22
2023-04-22T04:23:57.367Z,10.22
2023-04-22T04:24:57.331Z,10.22
2023-04-22T04:25:57.416Z,10.22
2023-04-22T04:26:57.346Z,10.23
2023-04-22T04:27:57.336Z,10.22
2023-04-22T04:28:57.343Z,10.20
2023-04-22T04:29:57.351Z,10.22
2023-04-22T04:30:57.290Z,10.23
2023-04-22T04:31:57.287Z,10.22
2023-04-22T04:32:57.504Z,10.23
2023-04-22T04:33:57.310Z,10.20
2023-04-22T04:34:57.234Z,10.25
2023-04-22T04:35:57.264Z,10.23
2023-04-22T04:36:57.285Z,10.23
2023-04-22T04:37:57.207Z,10.22
2023-04-22T04:38:57.174Z,10.22
2023-04-22T04:39:57.174Z,10.20
2023-04-22T04:40:57.154Z,10.22
2023-04-22T04:41:57.161Z,10.25
2023-04-22T04:42:57.200Z,10.25
2023-04-22T04:43:57.173Z,10.26
2023-04-22T04:44:57.107Z,10.25
2023-04-22T04:45:57.129Z,10.25
2023-04-22T04:46:57.122Z,10.28
2023-04-22T04:47:57.198Z,10.28
2023-04-22T04:48:57.100Z,10.30
2023-04-22T04:49:57.089Z,10.31
2023-04-22T04:50:57.076Z,10.33
2023-04-22T04:51:57.100Z,10.33
2023-04-22T04:52:57.022Z,10.35
2023-04-22T04:53:57.054Z,10.34
2023-04-22T04:54:57.005Z,10.34
2023-04-22T04:55:56.999Z,10.34
2023-04-22T04:56:56.987Z,10.37
2023-04-22T04:57:57.029Z,10.38
2023-04-22T04:58:56.968Z,10.40
2023-04-22T04:59:56.961Z,10.40
2023-04-22T05:00:56.926Z,10.41
2023-04-22T05:01:56.995Z,10.42
2023-04-22T05:02:57.057Z,10.44
2023-04-22T05:03:57.003Z,10.44
2023-04-22T05:04:57.099Z,10.46
2023-04-22T05:05:56.906Z,10.48
2023-04-22T05:06:56.886Z,10.48
2023-04-22T05:07:56.880Z,10.53
2023-04-22T05:08:56.861Z,10.51
2023-04-22T05:09:56.856Z,10.53
2023-04-22T05:10:56.829Z,10.54
2023-04-22T05:11:56.862Z,10.56
2023-04-22T05:12:56.810Z,10.56
2023-04-22T05:13:56.850Z,10.57
2023-04-22T05:14:56.805Z,10.57
2023-04-22T05:15:56.875Z,10.59
2023-04-22T05:16:56.876Z,10.59
2023-04-22T05:17:56.806Z,10.60
2023-04-22T05:18:56.752Z,10.63
2023-04-22T05:19:56.763Z,10.63
2023-04-22T05:20:56.751Z,10.64
2023-04-22T05:21:56.725Z,10.67
2023-04-22T05:22:56.683Z,10.67
2023-04-22T05:23:56.688Z,10.68
2023-04-22T05:24:56.662Z,10.69
2023-04-22T05:25:56.679Z,10.71
2023-04-22T05:26:56.962Z,10.74
2023-04-22T05:27:56.670Z,10.75
2023-04-22T05:28:56.628Z,10.76
2023-04-22T05:29:56.640Z,10.78
2023-04-22T05:30:56.613Z,10.79
2023-04-22T05:31:56.657Z,10.79
2023-04-22T05:32:56.701Z,10.81
2023-04-22T05:33:56.585Z,10.82
2023-04-22T05:34:56.552Z,10.84
2023-04-22T05:35:56.565Z,10.86
2023-04-22T05:36:56.535Z,10.86
2023-04-22T05:37:56.528Z,10.89
2023-04-22T05:38:56.527Z,10.89
2023-04-22T05:39:56.518Z,10.90
2023-04-22T05:40:56.497Z,10.92
2023-04-22T05:41:56.561Z,10.93
2023-04-22T05:42:56.496Z,10.96
2023-04-22T05:43:56.473Z,10.96
2023-04-22T05:44:56.515Z,11.00
2023-04-22T05:45:56.522Z,11.00
2023-04-22T05:46:56.433Z,11.02
2023-04-22T05:47:56.456Z,11.04
2023-04-22T05:48:56.442Z,11.08
2023-04-22T05:49:56.396Z,11.10
2023-04-22T05:50:56.394Z,11.12
2023-04-22T05:51:56.361Z,11.14
2023-04-22T05:52:56.413Z,11.17
2023-04-22T05:53:56.469Z,11.18
2023-04-22T05:54:56.339Z,11.22
2023-04-22T05:55:56.431Z,11.25
2023-04-22T05:56:56.348Z,11.27
2023-04-22T05:57:56.311Z,11.30
2023-04-22T05:58:56.337Z,11.33
2023-04-22T05:59:56.297Z,11.36
2023-04-22T06:00:56.296Z,11.40
2023-04-22T06:01:56.331Z,11.44
2023-04-22T06:02:56.521Z,11.45
2023-04-22T06:03:56.412Z,11.48
2023-04-22T06:04:56.583Z,11.52
2023-04-22T06:05:56.382Z,11.55
2023-04-22T06:06:56.178Z,11.62
2023-04-22T06:07:56.196Z,11.65
2023-04-22T06:08:56.198Z,11.68
2023-04-22T06:10:04.041Z,11.70
2023-04-22T06:10:57.174Z,11.72
2023-04-22T06:11:56.181Z,11.73
2023-04-22T06:12:56.119Z,11.75
2023-04-22T06:13:56.114Z,11.78
2023-04-22T06:14:56.095Z,11.81
2023-04-22T06:15:56.192Z,11.84
2023-04-22T06:16:56.108Z,11.87
2023-04-22T06:17:56.129Z,11.88
2023-04-22T06:18:56.126Z,11.91
2023-04-22T06:19:56.074Z,11.90
2023-04-22T06:20:56.036Z,11.91
2023-04-22T06:21:56.041Z,11.95
2023-04-22T06:22:56.047Z,11.91
2023-04-22T06:23:56.020Z,11.97
2023-04-22T06:24:55.997Z,11.99
2023-04-22T06:25:55.983Z,11.99
2023-04-22T06:26:56.008Z,12.04
2023-04-22T06:27:55.971Z,12.06
2023-04-22T06:28:55.969Z,12.07
2023-04-22T06:29:55.968Z,12.12
2023-04-22T06:30:55.971Z,12.13
2023-04-22T06:31:55.909Z,12.18
2023-04-22T06:32:55.928Z,12.22
2023-04-22T06:33:55.891Z,12.24
2023-04-22T06:34:55.890Z,12.29
2023-04-22T06:35:55.874Z,12.31
2023-04-22T06:36:55.848Z,12.35
2023-04-22T06:37:55.877Z,12.39
2023-04-22T06:38:55.840Z,12.42
2023-04-22T06:39:55.826Z,12.46
2023-04-22T06:40:55.800Z,12.50
2023-04-22T06:41:55.809Z,12.54
2023-04-22T06:42:55.806Z,12.58
2023-04-22T06:43:56.090Z,12.64
2023-04-22T06:44:55.802Z,12.67
2023-04-22T06:45:55.767Z,12.73
2023-04-22T06:46:57.830Z,12.76
2023-04-22T06:47:55.801Z,12.79
2023-04-22T06:48:55.785Z,12.79
2023-04-22T06:49:55.719Z,12.83
2023-04-22T06:50:55.692Z,12.82
2023-04-22T06:51:55.697Z,12.80
2023-04-22T06:52:55.677Z,12.83
2023-04-22T06:53:55.689Z,12.85
2023-04-22T06:54:55.657Z,12.91
2023-04-22T06:55:55.663Z,12.94
2023-04-22T06:56:55.640Z,12.98
2023-04-22T06:57:55.610Z,13.01
2023-04-22T06:58:55.677Z,13.05
2023-04-22T06:59:55.601Z,13.11
2023-04-22T07:00:55.606Z,13.16
2023-04-22T07:01:55.706Z,13.20
2023-04-22T07:02:55.701Z,13.23
2023-04-22T07:03:55.658Z,13.28
2023-04-22T07:04:55.556Z,13.33
2023-04-22T07:05:55.525Z,13.38
2023-04-22T07:06:55.573Z,13.42
2023-04-22T07:07:55.536Z,13.42
2023-04-22T07:08:55.489Z,13.49
2023-04-22T07:09:55.497Z,13.49
2023-04-22T07:10:55.475Z,13.49
2023-04-22T07:11:55.481Z,13.50
2023-04-22T07:12:55.460Z,13.52
2023-04-22T07:13:55.435Z,13.54
2023-04-22T07:14:55.459Z,13.57
2023-04-22T07:15:55.464Z,13.57
2023-04-22T07:16:55.482Z,13.60
2023-04-22T07:17:55.878Z,13.63
2023-04-22T07:18:55.393Z,13.65
2023-04-22T07:19:55.457Z,13.67
2023-04-22T07:20:55.350Z,13.67
2023-04-22T07:21:55.354Z,13.65
2023-04-22T07:22:55.398Z,13.65
2023-04-22T07:23:55.337Z,13.67
2023-04-22T07:24:55.301Z,13.68
2023-04-22T07:25:55.328Z,13.68
2023-04-22T07:26:55.280Z,13.70
2023-04-22T07:27:55.282Z,13.70
2023-04-22T07:28:55.365Z,13.72
2023-04-22T07:29:55.260Z,13.77
2023-04-22T07:30:55.288Z,13.79
2023-04-22T07:31:55.264Z,13.83
2023-04-22T07:32:55.274Z,13.87
2023-04-22T07:33:55.301Z,13.93
2023-04-22T07:34:55.211Z,13.99
2023-04-22T07:35:55.190Z,14.03
2023-04-22T07:36:55.224Z,14.07
2023-04-22T07:37:55.159Z,14.11
2023-04-22T07:38:55.186Z,14.18
2023-04-22T07:39:55.165Z,14.22
2023-04-22T07:40:55.138Z,14.23
2023-04-22T07:41:55.128Z,14.32
2023-04-22T07:42:55.106Z,14.36
2023-04-22T07:43:55.126Z,14.37
2023-04-22T07:44:55.170Z,14.41
2023-04-22T07:45:55.199Z,14.44
2023-04-22T07:46:55.077Z,14.50
2023-04-22T07:47:55.079Z,14.54
2023-04-22T07:48:55.042Z,14.58
2023-04-22T07:49:55.160Z,14.59
2023-04-22T07:50:55.070Z,14.62
2023-04-22T07:51:55.018Z,14.62
2023-04-22T07:52:55.066Z,14.65
2023-04-22T07:53:54.980Z,14.68
2023-04-22T07:54:54.957Z,14.72
2023-04-22T07:55:54.953Z,14.78
2023-04-22T07:56:54.929Z,14.84
2023-04-22T07:57:54.965Z,14.88
2023-04-22T07:58:54.938Z,14.89
2023-04-22T07:59:54.919Z,14.89
2023-04-22T08:00:54.938Z,14.92
2023-04-22T08:01:54.896Z,14.96
2023-04-22T08:02:55.007Z,15.02
2023-04-22T08:03:54.953Z,15.06
2023-04-22T08:04:54.939Z,15.11
2023-04-22T08:05:54.851Z,15.18
2023-04-22T08:06:54.879Z,15.21
2023-04-22T08:07:54.832Z,15.28
2023-04-22T08:08:54.846Z,15.37
2023-04-22T08:09:54.797Z,15.43
2023-04-22T08:10:54.789Z,15.51
2023-04-22T08:11:54.781Z,15.57
2023-04-22T08:12:54.787Z,15.64
2023-04-22T08:13:54.725Z,15.70
2023-04-22T08:14:54.818Z,15.79
2023-04-22T08:15:54.785Z,15.82
2023-04-22T08:16:54.729Z,15.84
2023-04-22T08:17:54.743Z,15.86
2023-04-22T08:18:54.717Z,15.91
2023-04-22T08:19:54.704Z,15.98
2023-04-22T08:20:54.688Z,16.08
2023-04-22T08:21:54.754Z,16.13
2023-04-22T08:22:54.660Z,16.23
2023-04-22T08:23:54.640Z,16.36
2023-04-22T08:24:54.701Z,16.46
2023-04-22T08:25:54.632Z,16.53
2023-04-22T08:26:54.637Z,16.57
2023-04-22T08:27:54.606Z,16.66
2023-04-22T08:28:54.614Z,16.72
2023-04-22T08:29:54.913Z,16.75
2023-04-22T08:30:54.682Z,16.83
2023-04-22T08:31:54.554Z,16.90
2023-04-22T08:32:54.633Z,16.96
2023-04-22T08:33:54.564Z,17.02
2023-04-22T08:35:03.514Z,17.09
2023-04-22T08:35:55.496Z,17.19
2023-04-22T08:36:54.504Z,17.22
2023-04-22T08:37:54.493Z,17.27
2023-04-22T08:38:54.482Z,17.30
2023-04-22T08:39:54.468Z,17.41
2023-04-22T08:40:54.484Z,17.46
2023-04-22T08:41:54.433Z,17.57
2023-04-22T08:42:55.236Z,17.74
2023-04-22T08:43:54.514Z,17.95
2023-04-22T08:44:54.423Z,18.15
2023-04-22T08:45:54.396Z,18.40
2023-04-22T08:46:54.549Z,18.60
2023-04-22T08:47:54.385Z,18.80
2023-04-22T08:48:54.370Z,18.98
2023-04-22T08:49:54.362Z,19.21
2023-04-22T08:50:54.328Z,19.36
2023-04-22T08:51:54.323Z,19.52
2023-04-22T08:52:54.314Z,19.70
2023-04-22T08:53:54.302Z,19.89
2023-04-22T08:54:54.342Z,20.07
2023-04-22T08:55:54.265Z,20.24
2023-04-22T08:56:54.265Z,20.32
2023-04-22T08:57:54.257Z,20.41
2023-04-22T08:58:54.270Z,20.48
2023-04-22T08:59:54.264Z,20.44
2023-04-22T09:00:54.244Z,20.47
2023-04-22T09:01:54.328Z,20.43
2023-04-22T09:02:54.416Z,20.44
2023-04-22T09:03:54.298Z,20.44
2023-04-22T09:04:54.186Z,20.55
2023-04-22T09:05:54.207Z,20.59
2023-04-22T09:06:54.162Z,20.60
2023-04-22T09:07:54.143Z,20.63
2023-04-22T09:08:54.146Z,20.70
2023-04-22T09:09:54.102Z,20.78
2023-04-22T09:10:54.130Z,20.93
2023-04-22T09:11:54.157Z,20.95
2023-04-22T09:12:54.097Z,20.97
2023-04-22T09:13:54.168Z,21.06
2023-04-22T09:14:54.067Z,21.15
2023-04-22T09:15:54.272Z,21.27
2023-04-22T09:16:54.135Z,21.32
2023-04-22T09:17:54.093Z,21.29
2023-04-22T09:18:54.020Z,21.35
2023-04-22T09:19:54.025Z,21.42
2023-04-22T09:20:54.018Z,21.51
2023-04-22T09:21:54.565Z,21.50
2023-04-22T09:22:53.991Z,21.45
2023-04-22T09:23:53.949Z,21.50
2023-04-22T09:24:53.968Z,21.54
2023-04-22T09:25:53.973Z,21.60
2023-04-22T09:26:53.970Z,21.66
2023-04-22T09:27:53.914Z,21.64
2023-04-22T09:28:53.958Z,21.61
2023-04-22T09:29:54.663Z,21.64
2023-04-22T09:30:53.885Z,21.66
2023-04-22T09:31:54.008Z,21.73
2023-04-22T09:32:54.004Z,21.76
2023-04-22T09:33:53.848Z,21.80
2023-04-22T09:34:53.836Z,21.89
2023-04-22T09:35:53.810Z,21.93
2023-04-22T09:36:53.832Z,22.02
2023-04-22T09:37:53.793Z,22.08
2023-04-22T09:38:53.793Z,22.08
2023-04-22T09:39:53.781Z,21.96
2023-04-22T09:40:53.774Z,21.95
2023-04-22T09:41:53.754Z,21.98
2023-04-22T09:42:54.003Z,21.99
2023-04-22T09:43:53.725Z,22.00
2023-04-22T09:44:53.721Z,21.96
2023-04-22T09:45:53.752Z,21.89
2023-04-22T09:46:53.710Z,21.83
2023-04-22T09:47:53.710Z,21.76
2023-04-22T09:48:53.690Z,21.61
2023-04-22T09:49:53.707Z,21.52
2023-04-22T09:50:53.686Z,21.46
2023-04-22T09:51:53.651Z,21.51
2023-04-22T09:52:53.678Z,21.50
2023-04-22T09:53:53.638Z,21.51
2023-04-22T09:54:53.639Z,21.60
2023-04-22T09:55:53.588Z,21.69
2023-04-22T09:56:53.589Z,21.80
2023-04-22T09:57:53.566Z,21.88
2023-04-22T09:58:53.605Z,21.93
2023-04-22T09:59:53.573Z,21.95
2023-04-22T10:00:53.624Z,21.96
2023-04-22T10:01:53.531Z,21.95
2023-04-22T10:02:53.587Z,21.95
2023-04-22T10:03:53.554Z,21.93
2023-04-22T10:04:53.537Z,21.89
2023-04-22T10:05:53.506Z,21.80
2023-04-22T10:06:53.519Z,21.70
2023-04-22T10:07:53.496Z,21.66
2023-04-22T10:08:53.460Z,21.66
2023-04-22T10:09:53.523Z,21.60
2023-04-22T10:10:53.461Z,21.57
2023-04-22T10:11:53.423Z,21.45
2023-04-22T10:12:53.438Z,21.48
2023-04-22T10:13:53.398Z,21.43
2023-04-22T10:14:53.475Z,21.45
2023-04-22T10:15:53.376Z,21.51
2023-04-22T10:16:53.370Z,21.54
2023-04-22T10:17:53.490Z,21.52
2023-04-22T10:18:53.370Z,21.55
2023-04-22T10:19:53.415Z,21.57
2023-04-22T10:20:53.332Z,21.60
2023-04-22T10:21:53.310Z,21.70
2023-04-22T10:22:53.301Z,21.82
2023-04-22T10:23:53.309Z,21.95
2023-04-22T10:24:53.288Z,22.07
2023-04-22T10:25:53.327Z,22.10
2023-04-22T10:26:54.895Z,22.14
2023-04-22T10:27:53.238Z,22.20
2023-04-22T10:28:53.251Z,22.32
2023-04-22T10:29:53.213Z,22.47
2023-04-22T10:30:53.232Z,22.57
2023-04-22T10:31:53.189Z,22.60
2023-04-22T10:32:53.216Z,22.65
2023-04-22T10:33:53.171Z,22.73
2023-04-22T10:34:53.172Z,22.81
2023-04-22T10:35:53.133Z,22.85
2023-04-22T10:36:53.141Z,22.94
2023-04-22T10:37:53.158Z,22.99
2023-04-22T10:38:53.114Z,23.02
2023-04-22T10:39:53.107Z,23.09
2023-04-22T10:40:53.235Z,23.23
2023-04-22T10:41:53.097Z,23.31
2023-04-22T10:42:53.078Z,23.44
2023-04-22T10:43:53.066Z,23.48
2023-04-22T10:44:53.082Z,23.51
2023-04-22T10:45:53.059Z,23.56
2023-04-22T10:46:53.178Z,23.51
2023-04-22T10:47:53.276Z,23.50
2023-04-22T10:48:53.013Z,23.56
2023-04-22T10:49:53.009Z,23.69
2023-04-22T10:50:52.988Z,23.83
2023-04-22T10:51:52.964Z,23.95
2023-04-22T10:52:53.023Z,24.11
2023-04-22T10:53:52.944Z,24.20
2023-04-22T10:54:52.962Z,24.21
2023-04-22T10:55:52.978Z,24.20
2023-04-22T10:56:58.028Z,24.20
2023-04-22T10:57:53.908Z,24.28
2023-04-22T10:58:52.911Z,24.33
2023-04-22T10:59:52.916Z,24.39
2023-04-22T11:00:54.260Z,24.30
2023-04-22T11:01:53.000Z,24.23
2023-04-22T11:02:52.965Z,24.11
2023-04-22T11:03:52.960Z,24.06
2023-04-22T11:04:52.845Z,24.16
2023-04-22T11:05:52.883Z,24.30
2023-04-22T11:06:52.814Z,24.45
2023-04-22T11:07:52.795Z,24.60
2023-04-22T11:08:52.832Z,24.78
2023-04-22T11:09:52.786Z,24.92
2023-04-22T11:10:52.779Z,25.03
2023-04-22T11:11:52.753Z,25.14
2023-04-22T11:12:52.748Z,25.21
2023-04-22T11:13:52.767Z,25.28
2023-04-22T11:14:52.741Z,25.31
2023-04-22T11:15:52.779Z,25.29
2023-04-22T11:16:52.978Z,25.21
2023-04-22T11:17:52.732Z,24.98
2023-04-22T11:18:52.719Z,24.74
2023-04-22T11:19:52.681Z,24.53
2023-04-22T11:20:52.653Z,24.40
2023-04-22T11:21:52.648Z,24.26
2023-04-22T11:22:52.641Z,24.10
2023-04-22T11:23:52.705Z,23.88
2023-04-22T11:24:52.629Z,23.66
2023-04-22T11:25:52.619Z,23.55
2023-04-22T11:26:52.616Z,23.40
2023-04-22T11:27:52.567Z,23.32
2023-04-22T11:28:52.684Z,23.31
2023-04-22T11:29:52.549Z,23.41
2023-04-22T11:30:52.563Z,23.55
2023-04-22T11:31:52.535Z,23.68
2023-04-22T11:32:52.556Z,23.76
2023-04-22T11:33:52.524Z,23.86
2023-04-22T11:34:52.542Z,23.96
2023-04-22T11:35:52.677Z,24.02
2023-04-22T11:36:52.530Z,24.10
2023-04-22T11:37:52.460Z,24.17
2023-04-22T11:38:52.477Z,24.26
2023-04-22T11:40:13.591Z,24.45
2023-04-22T11:40:53.415Z,24.65
2023-04-22T11:41:52.430Z,24.78
2023-04-22T11:42:52.445Z,24.81
2023-04-22T11:43:52.420Z,24.78
2023-04-22T11:44:52.448Z,24.65
2023-04-22T11:45:52.415Z,24.55
2023-04-22T11:46:52.374Z,24.60
2023-04-22T11:47:52.418Z,24.76
2023-04-22T11:48:52.340Z,24.95
2023-04-22T11:49:52.342Z,25.17
2023-04-22T11:50:52.338Z,25.40
2023-04-22T11:51:52.309Z,25.55
2023-04-22T11:52:52.301Z,25.54
2023-04-22T11:53:52.295Z,25.38
2023-04-22T11:54:52.260Z,25.22
2023-04-22T11:55:52.585Z,25.10
2023-04-22T11:56:52.254Z,25.08
2023-04-22T11:57:52.255Z,25.08
2023-04-22T11:58:52.233Z,25.18
2023-04-22T11:59:52.225Z,25.38
2023-04-22T12:00:52.202Z,25.53
2023-04-22T12:01:52.241Z,25.66
2023-04-22T12:02:52.309Z,25.68
2023-04-22T12:03:52.279Z,25.50
2023-04-22T12:04:52.194Z,25.28
2023-04-22T12:05:52.782Z,25.03
2023-04-22T12:06:52.148Z,24.74
2023-04-22T12:07:52.129Z,24.50
2023-04-22T12:08:52.149Z,24.32
2023-04-22T12:09:52.122Z,24.14
2023-04-22T12:10:52.091Z,23.92
2023-04-22T12:11:52.104Z,23.78
2023-04-22T12:12:52.090Z,23.65
2023-04-22T12:13:52.069Z,23.51
2023-04-22T12:14:52.038Z,23.32
2023-04-22T12:15:52.065Z,23.17
2023-04-22T12:16:52.070Z,23.02
2023-04-22T12:17:52.133Z,22.94
2023-04-22T12:18:52.055Z,22.87
2023-04-22T12:19:52.008Z,22.83
2023-04-22T12:20:51.973Z,22.76
2023-04-22T12:21:52.008Z,22.75
2023-04-22T12:22:51.974Z,22.70
2023-04-22T12:23:51.961Z,22.66
2023-04-22T12:24:51.930Z,22.60
2023-04-22T12:25:51.925Z,22.51
2023-04-22T12:26:51.954Z,22.48
2023-04-22T12:27:51.923Z,22.48
2023-04-22T12:28:51.929Z,22.50
2023-04-22T12:29:51.880Z,22.50
2023-04-22T12:30:51.888Z,22.54
2023-04-22T12:31:51.884Z,22.53
2023-04-22T12:32:51.851Z,22.55
2023-04-22T12:33:51.904Z,22.59
2023-04-22T12:34:51.836Z,22.62
2023-04-22T12:35:51.961Z,22.68
2023-04-22T12:36:51.829Z,22.69
2023-04-22T12:37:52.486Z,22.72
2023-04-22T12:38:51.803Z,22.76
2023-04-22T12:39:51.777Z,22.85
2023-04-22T12:40:51.760Z,23.02
2023-04-22T12:41:51.770Z,23.28
2023-04-22T12:42:51.743Z,23.59
2023-04-22T12:43:51.744Z,23.91
2023-04-22T12:44:51.774Z,24.16
2023-04-22T12:45:51.731Z,24.39
2023-04-22T12:46:51.756Z,24.58
2023-04-22T12:47:51.736Z,24.68
2023-04-22T12:48:51.700Z,24.74
2023-04-22T12:49:51.679Z,24.81
2023-04-22T12:50:51.646Z,24.95
2023-04-22T12:51:51.709Z,25.04